sensor_id;sensor_type;location;lat;lon;timestamp;temperature;humidity
37300;DHT22;23184;51.902;12.836;2023-08-01T00:01:31;15.90;99.90
37300;DHT22;23184;51.902;12.836;2023-08-01T00:03:57;15.90;99.90
37300;DHT22;23184;51.902;12.836;2023-08-01T00:06:22;15.90;99.90
37300;DHT22;23184;51.902;12.836;2023-08-01T00:08:49;15.90;99.90
37300;DHT22;23184;51.902;12.836;2023-08-01T00:11:15;15.90;99.90
37300;DHT22;23184;51.902;12.836;2023-08-01T00:13:41;15.90;99.90
37300;DHT22;23184;51.902;12.836;2023-08-01T00:16:08;15.90;99.90
37300;DHT22;23184;51.902;12.836;2023-08-01T00:18:33;15.90;99.90
37300;DHT22;23184;51.902;12.836;2023-08-01T00:20:59;15.90;99.90
37300;DHT22;23184;51.902;12.836;2023-08-01T00:23:25;15.90;99.90
37300;DHT22;23184;51.902;12.836;2023-08-01T00:25:50;15.90;99.90
37300;DHT22;23184;51.902;12.836;2023-08-01T00:28:22;15.90;99.90
37300;DHT22;23184;51.902;12.836;2023-08-01T00:30:47;15.90;99.90
37300;DHT22;23184;51.902;12.836;2023-08-01T00:33:13;15.90;99.90
37300;DHT22;23184;51.902;12.836;2023-08-01T00:35:40;15.90;99.90
37300;DHT22;23184;51.902;12.836;2023-08-01T00:38:05;15.90;99.90
37300;DHT22;23184;51.902;12.836;2023-08-01T00:40:31;15.90;99.90
37300;DHT22;23184;51.902;12.836;2023-08-01T00:42:57;15.90;99.90
37300;DHT22;23184;51.902;12.836;2023-08-01T00:45:23;15.90;99.90
37300;DHT22;23184;51.902;12.836;2023-08-01T00:47:51;16.00;99.90
37300;DHT22;23184;51.902;12.836;2023-08-01T00:50:17;15.90;99.90
37300;DHT22;23184;51.902;12.836;2023-08-01T00:52:49;15.90;99.90
37300;DHT22;23184;51.902;12.836;2023-08-01T00:55:15;16.00;99.90
37300;DHT22;23184;51.902;12.836;2023-08-01T00:57:41;15.90;99.90
37300;DHT22;23184;51.902;12.836;2023-08-01T01:00:08;15.90;99.90
37300;DHT22;23184;51.902;12.836;2023-08-01T01:02:34;16.00;99.90
37300;DHT22;23184;51.902;12.836;2023-08-01T01:05:00;16.00;99.90
37300;DHT22;23184;51.902;12.836;2023-08-01T01:07:27;15.90;99.90
37300;DHT22;23184;51.902;12.836;2023-08-01T01:09:54;16.00;99.90
37300;DHT22;23184;51.902;12.836;2023-08-01T01:12:19;16.00;99.90
37300;DHT22;23184;51.902;12.836;2023-08-01T01:14:45;16.00;99.90
37300;DHT22;23184;51.902;12.836;2023-08-01T01:17:10;16.00;99.90
37300;DHT22;23184;51.902;12.836;2023-08-01T01:19:36;16.00;99.90
37300;DHT22;23184;51.902;12.836;2023-08-01T01:22:03;15.90;99.90
37300;DHT22;23184;51.902;12.836;2023-08-01T01:24:30;16.00;99.90
37300;DHT22;23184;51.902;12.836;2023-08-01T01:26:56;16.00;99.90
37300;DHT22;23184;51.902;12.836;2023-08-01T01:29:26;16.00;99.90
37300;DHT22;23184;51.902;12.836;2023-08-01T01:31:52;16.00;99.90
37300;DHT22;23184;51.902;12.836;2023-08-01T01:34:18;16.10;99.90
37300;DHT22;23184;51.902;12.836;2023-08-01T01:36:44;16.10;99.90
37300;DHT22;23184;51.902;12.836;2023-08-01T01:39:09;16.10;99.90
37300;DHT22;23184;51.902;12.836;2023-08-01T01:41:35;16.10;99.90
37300;DHT22;23184;51.902;12.836;2023-08-01T01:44:01;16.10;99.90
37300;DHT22;23184;51.902;12.836;2023-08-01T01:46:26;16.10;99.90
37300;DHT22;23184;51.902;12.836;2023-08-01T01:48:52;16.10;99.90
37300;DHT22;23184;51.902;12.836;2023-08-01T01:51:17;16.10;99.90
37300;DHT22;23184;51.902;12.836;2023-08-01T01:53:43;16.10;99.90
37300;DHT22;23184;51.902;12.836;2023-08-01T01:56:09;16.10;99.90
37300;DHT22;23184;51.902;12.836;2023-08-01T01:58:34;16.10;99.90
37300;DHT22;23184;51.902;12.836;2023-08-01T02:01:00;16.10;99.90
37300;DHT22;23184;51.902;12.836;2023-08-01T02:03:25;16.10;99.90
37300;DHT22;23184;51.902;12.836;2023-08-01T02:05:51;16.10;99.90
37300;DHT22;23184;51.902;12.836;2023-08-01T02:08:16;16.10;99.90
37300;DHT22;23184;51.902;12.836;2023-08-01T02:10:41;16.10;99.90
37300;DHT22;23184;51.902;12.836;2023-08-01T02:13:07;16.10;99.90
37300;DHT22;23184;51.902;12.836;2023-08-01T02:15:34;16.10;99.90
37300;DHT22;23184;51.902;12.836;2023-08-01T02:17:59;16.10;99.90
37300;DHT22;23184;51.902;12.836;2023-08-01T02:20:25;16.10;99.90
37300;DHT22;23184;51.902;12.836;2023-08-01T02:22:51;16.10;99.90
37300;DHT22;23184;51.902;12.836;2023-08-01T02:25:17;16.10;99.90
37300;DHT22;23184;51.902;12.836;2023-08-01T02:27:42;16.20;99.90
37300;DHT22;23184;51.902;12.836;2023-08-01T02:30:08;16.20;99.90
37300;DHT22;23184;51.902;12.836;2023-08-01T02:32:34;16.20;99.90
37300;DHT22;23184;51.902;12.836;2023-08-01T02:34:59;16.20;99.90
37300;DHT22;23184;51.902;12.836;2023-08-01T02:37:25;16.20;99.90
37300;DHT22;23184;51.902;12.836;2023-08-01T02:39:50;16.20;99.90
37300;DHT22;23184;51.902;12.836;2023-08-01T02:42:16;16.30;99.90
37300;DHT22;23184;51.902;12.836;2023-08-01T02:44:41;16.30;99.90
37300;DHT22;23184;51.902;12.836;2023-08-01T02:47:07;16.30;99.90
37300;DHT22;23184;51.902;12.836;2023-08-01T02:49:32;16.20;99.90
37300;DHT22;23184;51.902;12.836;2023-08-01T02:51:58;16.20;99.90
37300;DHT22;23184;51.902;12.836;2023-08-01T02:54:24;16.20;99.90
37300;DHT22;23184;51.902;12.836;2023-08-01T02:56:50;16.20;99.90
37300;DHT22;23184;51.902;12.836;2023-08-01T02:59:16;16.20;99.90
37300;DHT22;23184;51.902;12.836;2023-08-01T03:01:43;16.20;99.90
37300;DHT22;23184;51.902;12.836;2023-08-01T03:04:09;16.10;99.90
37300;DHT22;23184;51.902;12.836;2023-08-01T03:06:37;16.10;99.90
37300;DHT22;23184;51.902;12.836;2023-08-01T03:09:02;16.10;99.90
37300;DHT22;23184;51.902;12.836;2023-08-01T03:11:28;16.10;99.90
37300;DHT22;23184;51.902;12.836;2023-08-01T03:13:53;16.10;99.90
37300;DHT22;23184;51.902;12.836;2023-08-01T03:16:19;16.10;99.90
37300;DHT22;23184;51.902;12.836;2023-08-01T03:18:44;16.20;99.90
37300;DHT22;23184;51.902;12.836;2023-08-01T03:21:10;16.20;99.90
37300;DHT22;23184;51.902;12.836;2023-08-01T03:23:36;16.20;99.90
37300;DHT22;23184;51.902;12.836;2023-08-01T03:26:02;16.20;99.90
37300;DHT22;23184;51.902;12.836;2023-08-01T03:28:28;16.20;99.90
37300;DHT22;23184;51.902;12.836;2023-08-01T03:30:54;16.20;99.90
37300;DHT22;23184;51.902;12.836;2023-08-01T03:33:20;16.30;99.90
37300;DHT22;23184;51.902;12.836;2023-08-01T03:35:46;16.30;99.90
37300;DHT22;23184;51.902;12.836;2023-08-01T03:38:11;16.30;99.90
37300;DHT22;23184;51.902;12.836;2023-08-01T03:40:37;16.30;99.90
37300;DHT22;23184;51.902;12.836;2023-08-01T03:43:03;16.30;99.90
37300;DHT22;23184;51.902;12.836;2023-08-01T03:45:28;16.30;99.90
37300;DHT22;23184;51.902;12.836;2023-08-01T03:47:54;16.40;99.90
37300;DHT22;23184;51.902;12.836;2023-08-01T03:50:19;16.40;99.90
37300;DHT22;23184;51.902;12.836;2023-08-01T03:52:45;16.30;99.90
37300;DHT22;23184;51.902;12.836;2023-08-01T03:55:11;16.40;99.90
37300;DHT22;23184;51.902;12.836;2023-08-01T03:57:36;16.40;99.90
37300;DHT22;23184;51.902;12.836;2023-08-01T04:00:05;16.30;99.90
37300;DHT22;23184;51.902;12.836;2023-08-01T04:02:31;16.30;99.90
37300;DHT22;23184;51.902;12.836;2023-08-01T04:04:56;16.30;99.90
37300;DHT22;23184;51.902;12.836;2023-08-01T04:07:22;16.30;99.90
37300;DHT22;23184;51.902;12.836;2023-08-01T04:09:47;16.20;99.90
37300;DHT22;23184;51.902;12.836;2023-08-01T04:12:13;16.20;99.90
37300;DHT22;23184;51.902;12.836;2023-08-01T04:14:38;16.10;99.90
37300;DHT22;23184;51.902;12.836;2023-08-01T04:17:04;16.10;99.90
37300;DHT22;23184;51.902;12.836;2023-08-01T04:19:29;16.10;99.90
37300;DHT22;23184;51.902;12.836;2023-08-01T04:21:55;16.10;99.90
37300;DHT22;23184;51.902;12.836;2023-08-01T04:24:20;16.10;99.90
37300;DHT22;23184;51.902;12.836;2023-08-01T04:26:46;16.10;99.90
37300;DHT22;23184;51.902;12.836;2023-08-01T04:29:11;16.10;99.90
37300;DHT22;23184;51.902;12.836;2023-08-01T04:31:40;16.10;99.90
37300;DHT22;23184;51.902;12.836;2023-08-01T04:34:06;16.10;99.90
37300;DHT22;23184;51.902;12.836;2023-08-01T04:36:31;16.10;99.90
37300;DHT22;23184;51.902;12.836;2023-08-01T04:38:57;16.10;99.90
37300;DHT22;23184;51.902;12.836;2023-08-01T04:41:22;16.00;99.90
37300;DHT22;23184;51.902;12.836;2023-08-01T04:43:48;16.00;99.90
37300;DHT22;23184;51.902;12.836;2023-08-01T04:46:13;16.10;99.90
37300;DHT22;23184;51.902;12.836;2023-08-01T04:48:39;16.10;99.90
37300;DHT22;23184;51.902;12.836;2023-08-01T04:51:04;16.10;99.90
37300;DHT22;23184;51.902;12.836;2023-08-01T04:53:30;16.10;99.90
37300;DHT22;23184;51.902;12.836;2023-08-01T04:55:55;16.10;99.90
37300;DHT22;23184;51.902;12.836;2023-08-01T04:58:20;16.10;99.90
37300;DHT22;23184;51.902;12.836;2023-08-01T05:00:46;16.10;99.90
37300;DHT22;23184;51.902;12.836;2023-08-01T05:03:11;16.10;99.90
37300;DHT22;23184;51.902;12.836;2023-08-01T05:05:37;16.10;99.90
37300;DHT22;23184;51.902;12.836;2023-08-01T05:08:03;16.10;99.90
37300;DHT22;23184;51.902;12.836;2023-08-01T05:10:28;16.10;99.90
37300;DHT22;23184;51.902;12.836;2023-08-01T05:12:54;16.10;99.90
37300;DHT22;23184;51.902;12.836;2023-08-01T05:15:19;16.10;99.90
37300;DHT22;23184;51.902;12.836;2023-08-01T05:17:45;16.10;99.90
37300;DHT22;23184;51.902;12.836;2023-08-01T05:20:11;16.10;99.90
37300;DHT22;23184;51.902;12.836;2023-08-01T05:22:36;16.10;99.90
37300;DHT22;23184;51.902;12.836;2023-08-01T05:25:02;16.10;99.90
37300;DHT22;23184;51.902;12.836;2023-08-01T05:27:29;16.20;99.90
37300;DHT22;23184;51.902;12.836;2023-08-01T05:29:54;16.20;99.90
37300;DHT22;23184;51.902;12.836;2023-08-01T05:32:20;16.20;99.90
37300;DHT22;23184;51.902;12.836;2023-08-01T05:34:45;16.20;99.90
37300;DHT22;23184;51.902;12.836;2023-08-01T05:37:11;16.20;99.90
37300;DHT22;23184;51.902;12.836;2023-08-01T05:39:36;16.20;99.90
37300;DHT22;23184;51.902;12.836;2023-08-01T05:42:02;16.20;99.90
37300;DHT22;23184;51.902;12.836;2023-08-01T05:44:27;16.20;99.90
37300;DHT22;23184;51.902;12.836;2023-08-01T05:46:53;16.30;99.90
37300;DHT22;23184;51.902;12.836;2023-08-01T05:49:18;16.30;99.90
37300;DHT22;23184;51.902;12.836;2023-08-01T05:51:44;16.30;99.90
37300;DHT22;23184;51.902;12.836;2023-08-01T05:54:09;16.30;99.90
37300;DHT22;23184;51.902;12.836;2023-08-01T05:56:35;16.30;99.90
37300;DHT22;23184;51.902;12.836;2023-08-01T05:59:00;16.30;99.90
37300;DHT22;23184;51.902;12.836;2023-08-01T06:01:26;16.30;99.90
37300;DHT22;23184;51.902;12.836;2023-08-01T06:03:52;16.30;99.90
37300;DHT22;23184;51.902;12.836;2023-08-01T06:06:17;16.40;99.90
37300;DHT22;23184;51.902;12.836;2023-08-01T06:08:43;16.40;99.90
37300;DHT22;23184;51.902;12.836;2023-08-01T06:11:08;16.40;99.90
37300;DHT22;23184;51.902;12.836;2023-08-01T06:13:34;16.40;99.90
37300;DHT22;23184;51.902;12.836;2023-08-01T06:15:59;16.50;99.90
37300;DHT22;23184;51.902;12.836;2023-08-01T06:18:25;16.50;99.90
37300;DHT22;23184;51.902;12.836;2023-08-01T06:20:50;16.50;99.90
37300;DHT22;23184;51.902;12.836;2023-08-01T06:23:16;16.50;99.90
37300;DHT22;23184;51.902;12.836;2023-08-01T06:25:41;16.50;99.90
37300;DHT22;23184;51.902;12.836;2023-08-01T06:28:07;16.50;99.90
37300;DHT22;23184;51.902;12.836;2023-08-01T06:30:32;16.50;99.90
37300;DHT22;23184;51.902;12.836;2023-08-01T06:32:58;16.60;99.90
37300;DHT22;23184;51.902;12.836;2023-08-01T06:35:23;16.60;99.90
37300;DHT22;23184;51.902;12.836;2023-08-01T06:37:49;16.70;99.90
37300;DHT22;23184;51.902;12.836;2023-08-01T06:40:14;16.70;99.90
37300;DHT22;23184;51.902;12.836;2023-08-01T06:42:40;16.70;99.90
37300;DHT22;23184;51.902;12.836;2023-08-01T06:45:06;16.70;99.90
37300;DHT22;23184;51.902;12.836;2023-08-01T06:47:32;16.70;99.90
37300;DHT22;23184;51.902;12.836;2023-08-01T06:49:57;16.70;99.90
37300;DHT22;23184;51.902;12.836;2023-08-01T06:52:23;16.70;99.90
37300;DHT22;23184;51.902;12.836;2023-08-01T06:54:48;16.70;99.90
37300;DHT22;23184;51.902;12.836;2023-08-01T06:57:14;16.70;99.90
37300;DHT22;23184;51.902;12.836;2023-08-01T06:59:39;16.80;99.90
37300;DHT22;23184;51.902;12.836;2023-08-01T07:02:05;16.80;99.90
37300;DHT22;23184;51.902;12.836;2023-08-01T07:04:31;16.90;99.90
37300;DHT22;23184;51.902;12.836;2023-08-01T07:06:57;16.90;99.90
37300;DHT22;23184;51.902;12.836;2023-08-01T07:09:23;17.00;99.90
37300;DHT22;23184;51.902;12.836;2023-08-01T07:11:48;17.10;99.90
37300;DHT22;23184;51.902;12.836;2023-08-01T07:14:14;17.20;99.90
37300;DHT22;23184;51.902;12.836;2023-08-01T07:16:39;17.40;99.90
37300;DHT22;23184;51.902;12.836;2023-08-01T07:19:05;17.40;99.90
37300;DHT22;23184;51.902;12.836;2023-08-01T07:21:30;17.40;99.90
37300;DHT22;23184;51.902;12.836;2023-08-01T07:23:56;17.40;99.90
37300;DHT22;23184;51.902;12.836;2023-08-01T07:26:23;17.40;99.90
37300;DHT22;23184;51.902;12.836;2023-08-01T07:28:48;17.40;99.90
37300;DHT22;23184;51.902;12.836;2023-08-01T07:31:14;17.50;99.90
37300;DHT22;23184;51.902;12.836;2023-08-01T07:33:39;17.50;99.90
37300;DHT22;23184;51.902;12.836;2023-08-01T07:36:05;17.50;99.90
37300;DHT22;23184;51.902;12.836;2023-08-01T07:38:31;17.50;99.90
37300;DHT22;23184;51.902;12.836;2023-08-01T07:41:05;17.50;99.90
37300;DHT22;23184;51.902;12.836;2023-08-01T07:43:32;17.60;99.90
37300;DHT22;23184;51.902;12.836;2023-08-01T07:45:59;17.60;99.90
37300;DHT22;23184;51.902;12.836;2023-08-01T07:48:25;17.60;99.90
37300;DHT22;23184;51.902;12.836;2023-08-01T07:50:50;17.70;99.90
37300;DHT22;23184;51.902;12.836;2023-08-01T07:53:16;17.70;99.90
37300;DHT22;23184;51.902;12.836;2023-08-01T07:55:42;17.70;99.90
37300;DHT22;23184;51.902;12.836;2023-08-01T07:58:07;17.80;99.90
37300;DHT22;23184;51.902;12.836;2023-08-01T08:00:35;17.80;99.90
37300;DHT22;23184;51.902;12.836;2023-08-01T08:03:01;17.90;99.90
37300;DHT22;23184;51.902;12.836;2023-08-01T08:05:26;18.00;99.90
37300;DHT22;23184;51.902;12.836;2023-08-01T08:07:52;18.10;99.90
37300;DHT22;23184;51.902;12.836;2023-08-01T08:10:17;18.30;99.90
37300;DHT22;23184;51.902;12.836;2023-08-01T08:12:43;18.40;99.90
37300;DHT22;23184;51.902;12.836;2023-08-01T08:15:09;18.40;99.90
37300;DHT22;23184;51.902;12.836;2023-08-01T08:17:34;18.40;99.90
37300;DHT22;23184;51.902;12.836;2023-08-01T08:20:00;18.30;99.90
37300;DHT22;23184;51.902;12.836;2023-08-01T08:22:25;18.20;99.90
37300;DHT22;23184;51.902;12.836;2023-08-01T08:24:51;18.20;99.90
37300;DHT22;23184;51.902;12.836;2023-08-01T08:27:16;18.20;99.90
37300;DHT22;23184;51.902;12.836;2023-08-01T08:29:42;18.20;99.90
37300;DHT22;23184;51.902;12.836;2023-08-01T08:32:08;18.20;99.90
37300;DHT22;23184;51.902;12.836;2023-08-01T08:34:33;18.20;99.90
37300;DHT22;23184;51.902;12.836;2023-08-01T08:36:59;18.20;99.90
37300;DHT22;23184;51.902;12.836;2023-08-01T08:39:24;18.30;99.90
37300;DHT22;23184;51.902;12.836;2023-08-01T08:41:51;18.30;99.90
37300;DHT22;23184;51.902;12.836;2023-08-01T08:44:18;18.30;99.90
37300;DHT22;23184;51.902;12.836;2023-08-01T08:46:53;18.40;99.90
37300;DHT22;23184;51.902;12.836;2023-08-01T08:49:20;18.40;99.90
37300;DHT22;23184;51.902;12.836;2023-08-01T08:51:47;18.50;99.90
37300;DHT22;23184;51.902;12.836;2023-08-01T08:54:13;18.60;99.90
37300;DHT22;23184;51.902;12.836;2023-08-01T08:56:40;18.80;99.90
37300;DHT22;23184;51.902;12.836;2023-08-01T08:59:08;18.80;99.90
37300;DHT22;23184;51.902;12.836;2023-08-01T09:01:37;18.80;99.90
37300;DHT22;23184;51.902;12.836;2023-08-01T09:04:03;19.00;99.90
37300;DHT22;23184;51.902;12.836;2023-08-01T09:06:35;19.00;99.90
37300;DHT22;23184;51.902;12.836;2023-08-01T09:09:10;19.20;99.90
37300;DHT22;23184;51.902;12.836;2023-08-01T09:14:05;19.60;99.90
37300;DHT22;23184;51.902;12.836;2023-08-01T09:16:32;19.50;99.90
37300;DHT22;23184;51.902;12.836;2023-08-01T09:18:58;19.50;99.90
37300;DHT22;23184;51.902;12.836;2023-08-01T09:21:24;19.50;99.90
37300;DHT22;23184;51.902;12.836;2023-08-01T09:23:50;19.50;99.90
37300;DHT22;23184;51.902;12.836;2023-08-01T09:26:18;19.30;99.90
37300;DHT22;23184;51.902;12.836;2023-08-01T09:28:58;18.80;99.90
37300;DHT22;23184;51.902;12.836;2023-08-01T09:31:31;18.60;99.90
37300;DHT22;23184;51.902;12.836;2023-08-01T09:33:57;18.40;99.90
37300;DHT22;23184;51.902;12.836;2023-08-01T09:36:23;18.30;99.90
37300;DHT22;23184;51.902;12.836;2023-08-01T09:38:49;18.20;99.90
37300;DHT22;23184;51.902;12.836;2023-08-01T09:41:19;18.10;99.90
37300;DHT22;23184;51.902;12.836;2023-08-01T09:43:48;18.10;99.90
37300;DHT22;23184;51.902;12.836;2023-08-01T09:46:15;18.20;99.90
37300;DHT22;23184;51.902;12.836;2023-08-01T09:48:41;18.30;99.90
37300;DHT22;23184;51.902;12.836;2023-08-01T09:51:08;18.30;99.90
37300;DHT22;23184;51.902;12.836;2023-08-01T09:53:36;18.20;99.90
37300;DHT22;23184;51.902;12.836;2023-08-01T09:56:02;18.10;99.90
37300;DHT22;23184;51.902;12.836;2023-08-01T09:58:32;18.00;99.90
37300;DHT22;23184;51.902;12.836;2023-08-01T10:01:00;17.80;99.90
37300;DHT22;23184;51.902;12.836;2023-08-01T10:03:27;17.80;99.90
37300;DHT22;23184;51.902;12.836;2023-08-01T10:05:54;17.70;99.90
37300;DHT22;23184;51.902;12.836;2023-08-01T10:08:21;17.60;99.90
37300;DHT22;23184;51.902;12.836;2023-08-01T10:10:47;17.60;99.90
37300;DHT22;23184;51.902;12.836;2023-08-01T10:13:13;17.60;99.90
37300;DHT22;23184;51.902;12.836;2023-08-01T10:15:40;17.50;99.90
37300;DHT22;23184;51.902;12.836;2023-08-01T10:18:05;17.40;99.90
37300;DHT22;23184;51.902;12.836;2023-08-01T10:20:32;17.20;99.90
37300;DHT22;23184;51.902;12.836;2023-08-01T10:22:59;17.00;99.90
37300;DHT22;23184;51.902;12.836;2023-08-01T10:25:26;16.80;99.90
37300;DHT22;23184;51.902;12.836;2023-08-01T10:28:02;16.60;99.90
37300;DHT22;23184;51.902;12.836;2023-08-01T10:30:29;16.60;99.90
37300;DHT22;23184;51.902;12.836;2023-08-01T10:32:56;16.60;99.90
37300;DHT22;23184;51.902;12.836;2023-08-01T10:35:36;16.50;99.90
37300;DHT22;23184;51.902;12.836;2023-08-01T10:38:11;16.60;99.90
37300;DHT22;23184;51.902;12.836;2023-08-01T10:43:04;16.70;99.90
37300;DHT22;23184;51.902;12.836;2023-08-01T10:45:30;16.70;99.90
37300;DHT22;23184;51.902;12.836;2023-08-01T10:48:11;16.70;99.90
37300;DHT22;23184;51.902;12.836;2023-08-01T10:50:37;16.80;99.90
37300;DHT22;23184;51.902;12.836;2023-08-01T10:53:05;16.60;99.90
37300;DHT22;23184;51.902;12.836;2023-08-01T10:55:45;16.60;99.90
37300;DHT22;23184;51.902;12.836;2023-08-01T10:58:12;16.60;99.90
37300;DHT22;23184;51.902;12.836;2023-08-01T11:00:38;16.60;99.90
37300;DHT22;23184;51.902;12.836;2023-08-01T11:03:04;16.50;99.90
37300;DHT22;23184;51.902;12.836;2023-08-01T11:05:29;16.60;99.90
37300;DHT22;23184;51.902;12.836;2023-08-01T11:08:03;16.60;99.90
37300;DHT22;23184;51.902;12.836;2023-08-01T11:10:30;16.70;99.90
37300;DHT22;23184;51.902;12.836;2023-08-01T11:12:56;16.70;99.90
37300;DHT22;23184;51.902;12.836;2023-08-01T11:15:22;16.80;99.90
37300;DHT22;23184;51.902;12.836;2023-08-01T11:17:50;16.70;99.90
37300;DHT22;23184;51.902;12.836;2023-08-01T11:20:16;16.90;99.90
37300;DHT22;23184;51.902;12.836;2023-08-01T11:22:56;17.00;99.90
37300;DHT22;23184;51.902;12.836;2023-08-01T11:28:08;17.30;99.90
37300;DHT22;23184;51.902;12.836;2023-08-01T11:30:34;17.20;99.90
37300;DHT22;23184;51.902;12.836;2023-08-01T11:33:01;17.50;99.90
37300;DHT22;23184;51.902;12.836;2023-08-01T11:35:28;18.20;99.90
37300;DHT22;23184;51.902;12.836;2023-08-01T11:37:54;18.80;99.90
37300;DHT22;23184;51.902;12.836;2023-08-01T11:40:20;19.20;99.90
37300;DHT22;23184;51.902;12.836;2023-08-01T11:42:49;19.50;99.90
37300;DHT22;23184;51.902;12.836;2023-08-01T11:45:17;19.60;99.90
37300;DHT22;23184;51.902;12.836;2023-08-01T11:47:47;19.80;99.90
37300;DHT22;23184;51.902;12.836;2023-08-01T11:50:13;20.50;99.90
37300;DHT22;23184;51.902;12.836;2023-08-01T11:52:39;20.90;99.90
37300;DHT22;23184;51.902;12.836;2023-08-01T11:55:05;20.50;99.90
37300;DHT22;23184;51.902;12.836;2023-08-01T11:57:30;20.10;99.90
37300;DHT22;23184;51.902;12.836;2023-08-01T11:59:56;20.30;99.90
37300;DHT22;23184;51.902;12.836;2023-08-01T12:02:29;20.00;99.90
37300;DHT22;23184;51.902;12.836;2023-08-01T12:04:57;19.70;99.90
37300;DHT22;23184;51.902;12.836;2023-08-01T12:07:25;19.70;99.90
37300;DHT22;23184;51.902;12.836;2023-08-01T12:09:58;20.10;99.90
37300;DHT22;23184;51.902;12.836;2023-08-01T12:12:27;19.90;99.90
37300;DHT22;23184;51.902;12.836;2023-08-01T12:14:53;20.40;99.90
37300;DHT22;23184;51.902;12.836;2023-08-01T12:17:19;20.50;99.90
37300;DHT22;23184;51.902;12.836;2023-08-01T12:19:45;20.90;99.90
37300;DHT22;23184;51.902;12.836;2023-08-01T12:22:11;21.10;99.90
37300;DHT22;23184;51.902;12.836;2023-08-01T12:24:37;20.80;99.90
37300;DHT22;23184;51.902;12.836;2023-08-01T12:27:07;20.60;99.90
37300;DHT22;23184;51.902;12.836;2023-08-01T12:29:33;21.00;99.90
37300;DHT22;23184;51.902;12.836;2023-08-01T12:31:58;20.50;99.90
37300;DHT22;23184;51.902;12.836;2023-08-01T12:34:24;20.50;99.90
37300;DHT22;23184;51.902;12.836;2023-08-01T12:36:49;21.10;99.90
37300;DHT22;23184;51.902;12.836;2023-08-01T12:39:15;22.00;99.90
37300;DHT22;23184;51.902;12.836;2023-08-01T12:41:40;22.20;99.90
37300;DHT22;23184;51.902;12.836;2023-08-01T12:44:06;21.70;99.90
37300;DHT22;23184;51.902;12.836;2023-08-01T12:46:31;21.90;99.90
37300;DHT22;23184;51.902;12.836;2023-08-01T12:48:57;22.60;99.90
37300;DHT22;23184;51.902;12.836;2023-08-01T12:51:22;23.30;99.90
37300;DHT22;23184;51.902;12.836;2023-08-01T12:53:48;23.80;99.90
37300;DHT22;23184;51.902;12.836;2023-08-01T12:56:14;23.70;99.90
37300;DHT22;23184;51.902;12.836;2023-08-01T12:58:39;24.10;99.90
37300;DHT22;23184;51.902;12.836;2023-08-01T13:01:06;23.70;99.90
37300;DHT22;23184;51.902;12.836;2023-08-01T13:03:31;23.80;99.90
37300;DHT22;23184;51.902;12.836;2023-08-01T13:05:57;23.80;99.90
37300;DHT22;23184;51.902;12.836;2023-08-01T13:08:23;23.10;99.90
37300;DHT22;23184;51.902;12.836;2023-08-01T13:10:49;22.70;99.90
37300;DHT22;23184;51.902;12.836;2023-08-01T13:13:16;23.10;99.90
37300;DHT22;23184;51.902;12.836;2023-08-01T13:15:41;23.90;99.90
37300;DHT22;23184;51.902;12.836;2023-08-01T13:18:07;24.60;99.90
37300;DHT22;23184;51.902;12.836;2023-08-01T13:20:32;23.90;99.90
37300;DHT22;23184;51.902;12.836;2023-08-01T13:22:58;22.20;99.90
37300;DHT22;23184;51.902;12.836;2023-08-01T13:25:24;21.10;99.90
37300;DHT22;23184;51.902;12.836;2023-08-01T13:27:49;21.10;99.90
37300;DHT22;23184;51.902;12.836;2023-08-01T13:30:15;22.00;99.90
37300;DHT22;23184;51.902;12.836;2023-08-01T13:32:43;23.00;99.90
37300;DHT22;23184;51.902;12.836;2023-08-01T13:35:08;23.60;99.90
37300;DHT22;23184;51.902;12.836;2023-08-01T13:37:34;24.20;99.90
37300;DHT22;23184;51.902;12.836;2023-08-01T13:40:00;22.70;99.90
37300;DHT22;23184;51.902;12.836;2023-08-01T13:42:26;21.40;99.90
37300;DHT22;23184;51.902;12.836;2023-08-01T13:44:53;21.10;99.90
37300;DHT22;23184;51.902;12.836;2023-08-01T13:47:19;20.90;99.90
37300;DHT22;23184;51.902;12.836;2023-08-01T13:49:45;20.90;99.90
37300;DHT22;23184;51.902;12.836;2023-08-01T13:52:10;20.80;99.90
37300;DHT22;23184;51.902;12.836;2023-08-01T13:54:36;20.90;99.90
37300;DHT22;23184;51.902;12.836;2023-08-01T13:57:01;21.30;99.90
37300;DHT22;23184;51.902;12.836;2023-08-01T13:59:27;21.90;99.90
37300;DHT22;23184;51.902;12.836;2023-08-01T14:01:53;23.10;99.90
37300;DHT22;23184;51.902;12.836;2023-08-01T14:04:18;23.10;99.90
37300;DHT22;23184;51.902;12.836;2023-08-01T14:06:44;23.20;99.90
37300;DHT22;23184;51.902;12.836;2023-08-01T14:09:10;23.80;99.90
37300;DHT22;23184;51.902;12.836;2023-08-01T14:11:36;24.20;99.90
37300;DHT22;23184;51.902;12.836;2023-08-01T14:14:02;23.40;99.90
37300;DHT22;23184;51.902;12.836;2023-08-01T14:16:28;22.50;99.90
37300;DHT22;23184;51.902;12.836;2023-08-01T14:18:54;23.10;99.90
37300;DHT22;23184;51.902;12.836;2023-08-01T14:21:19;22.80;99.90
37300;DHT22;23184;51.902;12.836;2023-08-01T14:23:45;23.20;99.90
37300;DHT22;23184;51.902;12.836;2023-08-01T14:26:10;23.40;99.90
37300;DHT22;23184;51.902;12.836;2023-08-01T14:28:36;23.20;99.90
37300;DHT22;23184;51.902;12.836;2023-08-01T14:31:02;23.80;99.90
37300;DHT22;23184;51.902;12.836;2023-08-01T14:33:28;23.60;99.90
37300;DHT22;23184;51.902;12.836;2023-08-01T14:35:54;24.10;99.90
37300;DHT22;23184;51.902;12.836;2023-08-01T14:38:19;24.30;99.90
37300;DHT22;23184;51.902;12.836;2023-08-01T14:40:45;24.10;99.90
37300;DHT22;23184;51.902;12.836;2023-08-01T14:43:10;24.20;99.90
37300;DHT22;23184;51.902;12.836;2023-08-01T14:45:39;23.90;99.90
37300;DHT22;23184;51.902;12.836;2023-08-01T14:48:06;24.20;99.90
37300;DHT22;23184;51.902;12.836;2023-08-01T14:50:32;23.80;99.90
37300;DHT22;23184;51.902;12.836;2023-08-01T14:52:57;23.90;99.90
37300;DHT22;23184;51.902;12.836;2023-08-01T14:55:23;23.80;99.90
37300;DHT22;23184;51.902;12.836;2023-08-01T14:57:48;23.40;99.90
37300;DHT22;23184;51.902;12.836;2023-08-01T15:00:15;23.80;99.90
37300;DHT22;23184;51.902;12.836;2023-08-01T15:02:41;23.80;99.90
37300;DHT22;23184;51.902;12.836;2023-08-01T15:05:07;24.10;99.90
37300;DHT22;23184;51.902;12.836;2023-08-01T15:07:32;23.80;99.90
37300;DHT22;23184;51.902;12.836;2023-08-01T15:09:58;23.30;99.90
37300;DHT22;23184;51.902;12.836;2023-08-01T15:12:23;23.60;99.90
37300;DHT22;23184;51.902;12.836;2023-08-01T15:14:56;23.60;99.90
37300;DHT22;23184;51.902;12.836;2023-08-01T15:17:22;23.30;99.90